sensor_id;sensor_type;location;lat;lon;timestamp;temperature;humidity
21580;DHT22;10951;59.656;9.666;2022-12-29T00:01:59;-5.00;99.90
21580;DHT22;10951;59.656;9.666;2022-12-29T00:04:26;-5.00;99.90
21580;DHT22;10951;59.656;9.666;2022-12-29T00:06:53;-4.90;99.90
21580;DHT22;10951;59.656;9.666;2022-12-29T00:09:20;-4.90;99.90
21580;DHT22;10951;59.656;9.666;2022-12-29T00:11:47;-4.90;99.90
21580;DHT22;10951;59.656;9.666;2022-12-29T00:14:16;-4.80;99.90
21580;DHT22;10951;59.656;9.666;2022-12-29T00:17:02;-4.80;99.90
21580;DHT22;10951;59.656;9.666;2022-12-29T00:19:29;-4.80;99.90
21580;DHT22;10951;59.656;9.666;2022-12-29T00:22:15;-4.70;99.90
21580;DHT22;10951;59.656;9.666;2022-12-29T00:25:01;-4.80;99.90
21580;DHT22;10951;59.656;9.666;2022-12-29T00:27:47;-4.80;99.90
21580;DHT22;10951;59.656;9.666;2022-12-29T00:30:33;-4.80;99.90
21580;DHT22;10951;59.656;9.666;2022-12-29T00:33:21;-4.80;99.90
21580;DHT22;10951;59.656;9.666;2022-12-29T00:39:04;-4.70;99.90
21580;DHT22;10951;59.656;9.666;2022-12-29T00:41:52;-4.70;99.90
21580;DHT22;10951;59.656;9.666;2022-12-29T00:44:38;-4.80;99.90
21580;DHT22;10951;59.656;9.666;2022-12-29T00:47:04;-4.70;99.90
21580;DHT22;10951;59.656;9.666;2022-12-29T00:49:32;-4.70;99.90
21580;DHT22;10951;59.656;9.666;2022-12-29T00:52:08;-4.70;99.90
21580;DHT22;10951;59.656;9.666;2022-12-29T00:54:37;-4.70;99.90
21580;DHT22;10951;59.656;9.666;2022-12-29T00:57:06;-4.60;99.90
21580;DHT22;10951;59.656;9.666;2022-12-29T00:59:38;-4.60;99.90
21580;DHT22;10951;59.656;9.666;2022-12-29T01:02:06;-4.50;99.90
21580;DHT22;10951;59.656;9.666;2022-12-29T01:04:33;-4.50;99.90
21580;DHT22;10951;59.656;9.666;2022-12-29T01:07:00;-4.50;99.90
21580;DHT22;10951;59.656;9.666;2022-12-29T01:09:27;-4.50;99.90
21580;DHT22;10951;59.656;9.666;2022-12-29T01:12:13;-4.40;99.90
21580;DHT22;10951;59.656;9.666;2022-12-29T01:14:40;-4.40;99.90
21580;DHT22;10951;59.656;9.666;2022-12-29T01:17:07;-4.40;99.90
21580;DHT22;10951;59.656;9.666;2022-12-29T01:19:34;-4.40;99.90
21580;DHT22;10951;59.656;9.666;2022-12-29T01:22:01;-4.40;99.90
21580;DHT22;10951;59.656;9.666;2022-12-29T01:24:28;-4.40;99.90
21580;DHT22;10951;59.656;9.666;2022-12-29T01:26:55;-4.40;99.90
21580;DHT22;10951;59.656;9.666;2022-12-29T01:29:22;-4.40;99.90
21580;DHT22;10951;59.656;9.666;2022-12-29T01:31:49;-4.40;99.90
21580;DHT22;10951;59.656;9.666;2022-12-29T01:34:17;-4.40;99.90
21580;DHT22;10951;59.656;9.666;2022-12-29T01:36:44;-4.40;99.90
21580;DHT22;10951;59.656;9.666;2022-12-29T01:39:12;-4.40;99.90
21580;DHT22;10951;59.656;9.666;2022-12-29T01:41:40;-4.30;99.90
21580;DHT22;10951;59.656;9.666;2022-12-29T01:47:11;-4.40;99.90
21580;DHT22;10951;59.656;9.666;2022-12-29T01:49:38;-4.40;99.90
21580;DHT22;10951;59.656;9.666;2022-12-29T01:52:07;-4.30;99.90
21580;DHT22;10951;59.656;9.666;2022-12-29T01:54:41;-4.30;99.90
21580;DHT22;10951;59.656;9.666;2022-12-29T01:57:16;-4.30;99.90
21580;DHT22;10951;59.656;9.666;2022-12-29T01:59:58;-4.30;99.90
21580;DHT22;10951;59.656;9.666;2022-12-29T02:02:27;-4.30;99.90
21580;DHT22;10951;59.656;9.666;2022-12-29T02:05:01;-4.30;99.90
21580;DHT22;10951;59.656;9.666;2022-12-29T02:07:31;-4.30;99.90
21580;DHT22;10951;59.656;9.666;2022-12-29T02:10:00;-4.30;99.90
21580;DHT22;10951;59.656;9.666;2022-12-29T02:12:29;-4.30;99.90
21580;DHT22;10951;59.656;9.666;2022-12-29T02:14:58;-4.40;99.90
21580;DHT22;10951;59.656;9.666;2022-12-29T02:23:40;-4.40;99.90
21580;DHT22;10951;59.656;9.666;2022-12-29T02:29:45;-4.40;99.90
21580;DHT22;10951;59.656;9.666;2022-12-29T02:32:37;-4.40;99.90
21580;DHT22;10951;59.656;9.666;2022-12-29T02:43:23;-4.60;99.90
21580;DHT22;10951;59.656;9.666;2022-12-29T02:45:58;-4.60;99.90
21580;DHT22;10951;59.656;9.666;2022-12-29T02:48:30;-4.50;99.90
21580;DHT22;10951;59.656;9.666;2022-12-29T02:51:15;-4.60;99.90
21580;DHT22;10951;59.656;9.666;2022-12-29T02:53:45;-4.60;99.90
21580;DHT22;10951;59.656;9.666;2022-12-29T02:56:31;-4.60;99.90
21580;DHT22;10951;59.656;9.666;2022-12-29T02:58:58;-4.60;99.90
21580;DHT22;10951;59.656;9.666;2022-12-29T03:08:06;-4.60;99.90
21580;DHT22;10951;59.656;9.666;2022-12-29T03:11:07;-4.60;99.90
21580;DHT22;10951;59.656;9.666;2022-12-29T03:17:25;-4.60;99.90
21580;DHT22;10951;59.656;9.666;2022-12-29T03:20:08;-4.60;99.90
21580;DHT22;10951;59.656;9.666;2022-12-29T03:22:42;-4.60;99.90
21580;DHT22;10951;59.656;9.666;2022-12-29T03:27:55;-4.50;99.90
21580;DHT22;10951;59.656;9.666;2022-12-29T03:30:23;-4.50;99.90
21580;DHT22;10951;59.656;9.666;2022-12-29T03:33:00;-4.60;99.90
21580;DHT22;10951;59.656;9.666;2022-12-29T03:35:33;-4.60;99.90
21580;DHT22;10951;59.656;9.666;2022-12-29T03:38:14;-4.60;99.90
21580;DHT22;10951;59.656;9.666;2022-12-29T03:40:52;-4.50;99.90
21580;DHT22;10951;59.656;9.666;2022-12-29T03:43:24;-4.60;99.90
21580;DHT22;10951;59.656;9.666;2022-12-29T03:45:51;-4.60;99.90
21580;DHT22;10951;59.656;9.666;2022-12-29T03:48:18;-4.60;99.90
21580;DHT22;10951;59.656;9.666;2022-12-29T03:50:47;-4.60;99.90
21580;DHT22;10951;59.656;9.666;2022-12-29T03:53:14;-4.60;99.90
21580;DHT22;10951;59.656;9.666;2022-12-29T03:55:41;-4.60;99.90
21580;DHT22;10951;59.656;9.666;2022-12-29T03:58:09;-4.60;99.90
21580;DHT22;10951;59.656;9.666;2022-12-29T04:00:54;-4.70;99.90
21580;DHT22;10951;59.656;9.666;2022-12-29T04:03:21;-4.60;99.90
21580;DHT22;10951;59.656;9.666;2022-12-29T04:05:49;-4.60;99.90
21580;DHT22;10951;59.656;9.666;2022-12-29T04:08:16;-4.60;99.90
21580;DHT22;10951;59.656;9.666;2022-12-29T04:10:43;-4.60;99.90
21580;DHT22;10951;59.656;9.666;2022-12-29T04:13:12;-4.60;99.90
21580;DHT22;10951;59.656;9.666;2022-12-29T04:15:39;-4.60;99.90
21580;DHT22;10951;59.656;9.666;2022-12-29T04:18:08;-4.60;99.90
21580;DHT22;10951;59.656;9.666;2022-12-29T04:20:35;-4.50;99.90
21580;DHT22;10951;59.656;9.666;2022-12-29T04:23:20;-4.50;99.90
21580;DHT22;10951;59.656;9.666;2022-12-29T04:25:47;-4.50;99.90
21580;DHT22;10951;59.656;9.666;2022-12-29T04:28:16;-4.60;99.90
21580;DHT22;10951;59.656;9.666;2022-12-29T04:30:49;-4.50;99.90
21580;DHT22;10951;59.656;9.666;2022-12-29T04:33:20;-4.60;99.90
21580;DHT22;10951;59.656;9.666;2022-12-29T04:35:47;-4.60;99.90
21580;DHT22;10951;59.656;9.666;2022-12-29T04:38:15;-4.60;99.90
21580;DHT22;10951;59.656;9.666;2022-12-29T04:40:43;-4.50;99.90
21580;DHT22;10951;59.656;9.666;2022-12-29T04:43:11;-4.50;99.90
21580;DHT22;10951;59.656;9.666;2022-12-29T04:45:57;-4.50;99.90
21580;DHT22;10951;59.656;9.666;2022-12-29T04:48:32;-4.50;99.90
21580;DHT22;10951;59.656;9.666;2022-12-29T04:51:20;-4.50;99.90
21580;DHT22;10951;59.656;9.666;2022-12-29T04:53:47;-4.50;99.90
21580;DHT22;10951;59.656;9.666;2022-12-29T04:56:14;-4.50;99.90
21580;DHT22;10951;59.656;9.666;2022-12-29T04:58:41;-4.50;99.90
21580;DHT22;10951;59.656;9.666;2022-12-29T05:01:08;-4.50;99.90
21580;DHT22;10951;59.656;9.666;2022-12-29T05:03:35;-4.50;99.90
21580;DHT22;10951;59.656;9.666;2022-12-29T05:06:03;-4.50;99.90
21580;DHT22;10951;59.656;9.666;2022-12-29T05:08:30;-4.50;99.90
21580;DHT22;10951;59.656;9.666;2022-12-29T05:10:59;-4.40;99.90
21580;DHT22;10951;59.656;9.666;2022-12-29T05:13:26;-4.40;99.90
21580;DHT22;10951;59.656;9.666;2022-12-29T05:15:54;-4.40;99.90
21580;DHT22;10951;59.656;9.666;2022-12-29T05:18:22;-4.40;99.90
21580;DHT22;10951;59.656;9.666;2022-12-29T05:20:49;-4.40;99.90
21580;DHT22;10951;59.656;9.666;2022-12-29T05:23:19;-4.40;99.90
21580;DHT22;10951;59.656;9.666;2022-12-29T05:25:53;-4.40;99.90
21580;DHT22;10951;59.656;9.666;2022-12-29T05:28:28;-4.40;99.90
21580;DHT22;10951;59.656;9.666;2022-12-29T05:31:05;-4.50;99.90
21580;DHT22;10951;59.656;9.666;2022-12-29T05:33:32;-4.40;99.90
21580;DHT22;10951;59.656;9.666;2022-12-29T05:36:06;-4.40;99.90
21580;DHT22;10951;59.656;9.666;2022-12-29T05:38:35;-4.40;99.90
21580;DHT22;10951;59.656;9.666;2022-12-29T05:41:02;-4.40;99.90
21580;DHT22;10951;59.656;9.666;2022-12-29T05:43:41;-4.40;99.90
21580;DHT22;10951;59.656;9.666;2022-12-29T05:46:31;-4.30;99.90
21580;DHT22;10951;59.656;9.666;2022-12-29T05:49:24;-4.40;99.90
21580;DHT22;10951;59.656;9.666;2022-12-29T05:52:07;-4.40;99.90
21580;DHT22;10951;59.656;9.666;2022-12-29T05:54:34;-4.40;99.90
21580;DHT22;10951;59.656;9.666;2022-12-29T05:57:06;-4.40;99.90
21580;DHT22;10951;59.656;9.666;2022-12-29T05:59:33;-4.40;99.90
21580;DHT22;10951;59.656;9.666;2022-12-29T06:02:01;-4.40;99.90
21580;DHT22;10951;59.656;9.666;2022-12-29T06:04:28;-4.40;99.90
21580;DHT22;10951;59.656;9.666;2022-12-29T06:06:55;-4.40;99.90
21580;DHT22;10951;59.656;9.666;2022-12-29T06:09:31;-4.40;99.90
21580;DHT22;10951;59.656;9.666;2022-12-29T06:11:59;-4.40;99.90
21580;DHT22;10951;59.656;9.666;2022-12-29T06:14:26;-4.40;99.90
21580;DHT22;10951;59.656;9.666;2022-12-29T06:16:52;-4.30;99.90
21580;DHT22;10951;59.656;9.666;2022-12-29T06:19:20;-4.30;99.90
21580;DHT22;10951;59.656;9.666;2022-12-29T06:21:47;-4.30;99.90
21580;DHT22;10951;59.656;9.666;2022-12-29T06:24:14;-4.30;99.90
21580;DHT22;10951;59.656;9.666;2022-12-29T06:26:41;-4.30;99.90
21580;DHT22;10951;59.656;9.666;2022-12-29T06:29:08;-4.30;99.90
21580;DHT22;10951;59.656;9.666;2022-12-29T06:31:35;-4.30;99.90
21580;DHT22;10951;59.656;9.666;2022-12-29T06:34:03;-4.30;99.90
21580;DHT22;10951;59.656;9.666;2022-12-29T06:36:35;-4.30;99.90
21580;DHT22;10951;59.656;9.666;2022-12-29T06:39:03;-4.30;99.90
21580;DHT22;10951;59.656;9.666;2022-12-29T06:41:30;-4.20;99.90
21580;DHT22;10951;59.656;9.666;2022-12-29T06:44:10;-4.20;99.90
21580;DHT22;10951;59.656;9.666;2022-12-29T06:46:54;-4.20;99.90
21580;DHT22;10951;59.656;9.666;2022-12-29T06:49:21;-4.20;99.90
21580;DHT22;10951;59.656;9.666;2022-12-29T06:51:48;-4.20;99.90
21580;DHT22;10951;59.656;9.666;2022-12-29T06:54:15;-4.10;99.90
21580;DHT22;10951;59.656;9.666;2022-12-29T06:56:42;-4.10;99.90
21580;DHT22;10951;59.656;9.666;2022-12-29T06:59:09;-4.10;99.90
21580;DHT22;10951;59.656;9.666;2022-12-29T07:01:36;-4.00;99.90
21580;DHT22;10951;59.656;9.666;2022-12-29T07:04:03;-4.00;99.90
21580;DHT22;10951;59.656;9.666;2022-12-29T07:06:30;-4.00;99.90
21580;DHT22;10951;59.656;9.666;2022-12-29T07:08:57;-4.00;99.90
21580;DHT22;10951;59.656;9.666;2022-12-29T07:11:24;-4.00;99.90
21580;DHT22;10951;59.656;9.666;2022-12-29T07:13:51;-4.00;99.90
21580;DHT22;10951;59.656;9.666;2022-12-29T07:16:18;-3.90;99.90
21580;DHT22;10951;59.656;9.666;2022-12-29T07:18:45;-3.90;99.90
21580;DHT22;10951;59.656;9.666;2022-12-29T07:21:12;-3.90;99.90
21580;DHT22;10951;59.656;9.666;2022-12-29T07:23:39;-3.90;99.90
21580;DHT22;10951;59.656;9.666;2022-12-29T07:26:08;-3.90;99.90
21580;DHT22;10951;59.656;9.666;2022-12-29T07:28:36;-4.00;99.90
21580;DHT22;10951;59.656;9.666;2022-12-29T07:31:05;-3.90;99.90
21580;DHT22;10951;59.656;9.666;2022-12-29T07:33:33;-3.90;99.90
21580;DHT22;10951;59.656;9.666;2022-12-29T07:36:00;-3.90;99.90
21580;DHT22;10951;59.656;9.666;2022-12-29T07:38:26;-3.90;99.90
21580;DHT22;10951;59.656;9.666;2022-12-29T07:40:57;-3.90;99.90
21580;DHT22;10951;59.656;9.666;2022-12-29T07:43:25;-3.90;99.90
21580;DHT22;10951;59.656;9.666;2022-12-29T07:46:19;-3.90;99.90
21580;DHT22;10951;59.656;9.666;2022-12-29T07:49:06;-3.90;99.90
21580;DHT22;10951;59.656;9.666;2022-12-29T07:51:33;-3.90;99.90
21580;DHT22;10951;59.656;9.666;2022-12-29T07:54:00;-3.90;99.90
21580;DHT22;10951;59.656;9.666;2022-12-29T07:56:27;-3.90;99.90
21580;DHT22;10951;59.656;9.666;2022-12-29T07:58:54;-3.80;99.90
21580;DHT22;10951;59.656;9.666;2022-12-29T08:01:21;-3.80;99.90
21580;DHT22;10951;59.656;9.666;2022-12-29T08:03:50;-3.80;99.90
21580;DHT22;10951;59.656;9.666;2022-12-29T08:06:23;-3.80;99.90
21580;DHT22;10951;59.656;9.666;2022-12-29T08:08:49;-3.80;99.90
21580;DHT22;10951;59.656;9.666;2022-12-29T08:11:16;-3.70;99.90
21580;DHT22;10951;59.656;9.666;2022-12-29T08:13:43;-3.70;99.90
21580;DHT22;10951;59.656;9.666;2022-12-29T08:16:10;-3.70;99.90
21580;DHT22;10951;59.656;9.666;2022-12-29T08:18:37;-3.70;99.90
21580;DHT22;10951;59.656;9.666;2022-12-29T08:21:04;-3.80;99.90
21580;DHT22;10951;59.656;9.666;2022-12-29T08:23:32;-3.70;99.90
21580;DHT22;10951;59.656;9.666;2022-12-29T08:26:03;-3.70;99.90
21580;DHT22;10951;59.656;9.666;2022-12-29T08:28:31;-3.80;99.90
21580;DHT22;10951;59.656;9.666;2022-12-29T08:31:00;-3.80;99.90
21580;DHT22;10951;59.656;9.666;2022-12-29T08:33:28;-3.70;99.90
21580;DHT22;10951;59.656;9.666;2022-12-29T08:36:03;-3.70;99.90
21580;DHT22;10951;59.656;9.666;2022-12-29T08:38:31;-3.70;99.90
21580;DHT22;10951;59.656;9.666;2022-12-29T08:40:58;-3.70;99.90
21580;DHT22;10951;59.656;9.666;2022-12-29T08:43:28;-3.70;99.90
21580;DHT22;10951;59.656;9.666;2022-12-29T08:45:56;-3.70;99.90
21580;DHT22;10951;59.656;9.666;2022-12-29T08:48:23;-3.70;99.90
21580;DHT22;10951;59.656;9.666;2022-12-29T08:50:50;-3.70;99.90
21580;DHT22;10951;59.656;9.666;2022-12-29T08:53:18;-3.70;99.90
21580;DHT22;10951;59.656;9.666;2022-12-29T08:55:46;-3.80;99.90
21580;DHT22;10951;59.656;9.666;2022-12-29T08:58:14;-3.70;99.90
21580;DHT22;10951;59.656;9.666;2022-12-29T09:00:43;-3.70;99.90
21580;DHT22;10951;59.656;9.666;2022-12-29T09:03:10;-3.80;99.90
21580;DHT22;10951;59.656;9.666;2022-12-29T09:05:37;-3.80;99.90
21580;DHT22;10951;59.656;9.666;2022-12-29T09:08:04;-3.80;99.90
21580;DHT22;10951;59.656;9.666;2022-12-29T09:10:31;-3.70;99.90
21580;DHT22;10951;59.656;9.666;2022-12-29T09:12:58;-3.70;99.90
21580;DHT22;10951;59.656;9.666;2022-12-29T09:15:25;-3.70;99.90
21580;DHT22;10951;59.656;9.666;2022-12-29T09:17:52;-3.70;99.90
21580;DHT22;10951;59.656;9.666;2022-12-29T09:20:19;-3.70;99.90
21580;DHT22;10951;59.656;9.666;2022-12-29T09:22:46;-3.70;99.90
21580;DHT22;10951;59.656;9.666;2022-12-29T09:25:14;-3.70;99.90
21580;DHT22;10951;59.656;9.666;2022-12-29T09:27:41;-3.60;99.90
21580;DHT22;10951;59.656;9.666;2022-12-29T09:30:11;-3.60;99.90
21580;DHT22;10951;59.656;9.666;2022-12-29T09:32:38;-3.60;99.90
21580;DHT22;10951;59.656;9.666;2022-12-29T09:35:11;-3.60;99.90
21580;DHT22;10951;59.656;9.666;2022-12-29T09:37:37;-3.50;99.90
21580;DHT22;10951;59.656;9.666;2022-12-29T09:40:05;-3.50;99.90
21580;DHT22;10951;59.656;9.666;2022-12-29T09:42:43;-3.50;99.90
21580;DHT22;10951;59.656;9.666;2022-12-29T09:47:43;-3.50;99.90
21580;DHT22;10951;59.656;9.666;2022-12-29T09:53:05;-3.50;99.90
21580;DHT22;10951;59.656;9.666;2022-12-29T09:55:40;-3.50;99.90
21580;DHT22;10951;59.656;9.666;2022-12-29T09:58:29;-3.40;99.90
21580;DHT22;10951;59.656;9.666;2022-12-29T10:01:04;-3.40;99.90
21580;DHT22;10951;59.656;9.666;2022-12-29T10:04:00;-3.40;99.90
21580;DHT22;10951;59.656;9.666;2022-12-29T10:09:53;-3.40;99.90
21580;DHT22;10951;59.656;9.666;2022-12-29T10:15:01;-3.40;99.90
21580;DHT22;10951;59.656;9.666;2022-12-29T10:17:43;-3.40;99.90
21580;DHT22;10951;59.656;9.666;2022-12-29T10:23:04;-3.40;99.90
21580;DHT22;10951;59.656;9.666;2022-12-29T10:25:37;-3.40;99.90
21580;DHT22;10951;59.656;9.666;2022-12-29T10:28:45;-3.40;99.90
21580;DHT22;10951;59.656;9.666;2022-12-29T10:31:07;-3.30;99.90
21580;DHT22;10951;59.656;9.666;2022-12-29T10:33:39;-3.30;99.90
21580;DHT22;10951;59.656;9.666;2022-12-29T10:36:18;-3.20;99.90
21580;DHT22;10951;59.656;9.666;2022-12-29T10:38:54;-3.10;99.90
21580;DHT22;10951;59.656;9.666;2022-12-29T10:41:51;-3.10;99.90
21580;DHT22;10951;59.656;9.666;2022-12-29T10:44:17;-3.00;99.90
21580;DHT22;10951;59.656;9.666;2022-12-29T10:46:55;-3.00;99.90
21580;DHT22;10951;59.656;9.666;2022-12-29T10:49:25;-3.00;99.90
21580;DHT22;10951;59.656;9.666;2022-12-29T10:51:55;-3.00;99.90
21580;DHT22;10951;59.656;9.666;2022-12-29T10:54:29;-3.00;99.90
21580;DHT22;10951;59.656;9.666;2022-12-29T10:57:11;-3.00;99.90
21580;DHT22;10951;59.656;9.666;2022-12-29T10:59:41;-3.00;99.90
21580;DHT22;10951;59.656;9.666;2022-12-29T11:04:46;-3.00;99.90
21580;DHT22;10951;59.656;9.666;2022-12-29T11:07:19;-2.90;99.90
21580;DHT22;10951;59.656;9.666;2022-12-29T11:09:53;-2.90;99.90
21580;DHT22;10951;59.656;9.666;2022-12-29T11:12:27;-2.90;99.90
21580;DHT22;10951;59.656;9.666;2022-12-29T11:15:20;-2.90;99.90
21580;DHT22;10951;59.656;9.666;2022-12-29T11:18:16;-2.90;99.90
21580;DHT22;10951;59.656;9.666;2022-12-29T11:20:39;-2.90;99.90
21580;DHT22;10951;59.656;9.666;2022-12-29T11:23:23;-2.90;99.90
21580;DHT22;10951;59.656;9.666;2022-12-29T11:28:45;-2.90;99.90
21580;DHT22;10951;59.656;9.666;2022-12-29T11:31:16;-3.00;99.90
21580;DHT22;10951;59.656;9.666;2022-12-29T11:33:44;-2.90;99.90
21580;DHT22;10951;59.656;9.666;2022-12-29T11:36:17;-2.80;99.90
21580;DHT22;10951;59.656;9.666;2022-12-29T11:38:51;-2.80;99.90
21580;DHT22;10951;59.656;9.666;2022-12-29T11:41:29;-2.80;99.90
21580;DHT22;10951;59.656;9.666;2022-12-29T11:43:59;-2.60;99.90
21580;DHT22;10951;59.656;9.666;2022-12-29T11:46:30;-2.70;99.90
21580;DHT22;10951;59.656;9.666;2022-12-29T11:48:59;-2.70;99.90
21580;DHT22;10951;59.656;9.666;2022-12-29T11:51:37;-2.60;99.90
21580;DHT22;10951;59.656;9.666;2022-12-29T11:54:05;-2.60;99.90
21580;DHT22;10951;59.656;9.666;2022-12-29T11:56:44;-2.60;99.90
21580;DHT22;10951;59.656;9.666;2022-12-29T12:01:58;-2.60;99.90
21580;DHT22;10951;59.656;9.666;2022-12-29T12:04:36;-2.60;99.90
21580;DHT22;10951;59.656;9.666;2022-12-29T12:07:13;-2.60;99.90
21580;DHT22;10951;59.656;9.666;2022-12-29T12:09:53;-2.50;99.90
21580;DHT22;10951;59.656;9.666;2022-12-29T12:15:22;-2.50;99.90
21580;DHT22;10951;59.656;9.666;2022-12-29T12:18:25;-2.50;99.90
21580;DHT22;10951;59.656;9.666;2022-12-29T12:21:17;-2.50;99.90
21580;DHT22;10951;59.656;9.666;2022-12-29T12:26:27;-2.30;99.90
21580;DHT22;10951;59.656;9.666;2022-12-29T12:28:59;-2.30;99.90
21580;DHT22;10951;59.656;9.666;2022-12-29T12:31:46;-2.20;99.90
21580;DHT22;10951;59.656;9.666;2022-12-29T12:34:39;-2.20;99.90
21580;DHT22;10951;59.656;9.666;2022-12-29T12:37:27;-2.20;99.90
21580;DHT22;10951;59.656;9.666;2022-12-29T13:00:10;-2.10;99.90
21580;DHT22;10951;59.656;9.666;2022-12-29T13:03:10;-2.20;99.90
21580;DHT22;10951;59.656;9.666;2022-12-29T13:08:56;-2.20;99.90
21580;DHT22;10951;59.656;9.666;2022-12-29T13:11:32;-2.20;99.90
21580;DHT22;10951;59.656;9.666;2022-12-29T13:14:23;-2.10;99.90
21580;DHT22;10951;59.656;9.666;2022-12-29T13:19:36;-2.10;99.90
21580;DHT22;10951;59.656;9.666;2022-12-29T13:27:49;-2.10;99.90
21580;DHT22;10951;59.656;9.666;2022-12-29T13:30:23;-2.10;99.90
21580;DHT22;10951;59.656;9.666;2022-12-29T13:33:16;-2.10;99.90
21580;DHT22;10951;59.656;9.666;2022-12-29T13:36:04;-2.20;99.90
21580;DHT22;10951;59.656;9.666;2022-12-29T13:38:39;-2.20;99.90
21580;DHT22;10951;59.656;9.666;2022-12-29T13:43:44;-2.10;99.90
21580;DHT22;10951;59.656;9.666;2022-12-29T13:46:16;-2.10;99.90
21580;DHT22;10951;59.656;9.666;2022-12-29T13:51:22;-2.30;99.90
21580;DHT22;10951;59.656;9.666;2022-12-29T13:54:14;-2.30;99.90
21580;DHT22;10951;59.656;9.666;2022-12-29T13:56:55;-2.30;99.90
21580;DHT22;10951;59.656;9.666;2022-12-29T14:07:57;-2.30;99.90
21580;DHT22;10951;59.656;9.666;2022-12-29T14:10:45;-2.30;99.90
21580;DHT22;10951;59.656;9.666;2022-12-29T14:13:15;-2.30;99.90
21580;DHT22;10951;59.656;9.666;2022-12-29T14:15:45;-2.30;99.90
21580;DHT22;10951;59.656;9.666;2022-12-29T14:18:24;-2.30;99.90
21580;DHT22;10951;59.656;9.666;2022-12-29T14:28:28;-2.20;99.90
21580;DHT22;10951;59.656;9.666;2022-12-29T14:31:01;-2.30;99.90
21580;DHT22;10951;59.656;9.666;2022-12-29T14:33:31;-2.30;99.90
21580;DHT22;10951;59.656;9.666;2022-12-29T14:39:01;-2.40;99.90
21580;DHT22;10951;59.656;9.666;2022-12-29T14:41:31;-2.30;99.90
21580;DHT22;10951;59.656;9.666;2022-12-29T14:44:18;-2.30;99.90
21580;DHT22;10951;59.656;9.666;2022-12-29T14:49:25;-2.40;99.90
21580;DHT22;10951;59.656;9.666;2022-12-29T14:52:04;-2.50;99.90
21580;DHT22;10951;59.656;9.666;2022-12-29T14:57:07;-2.50;99.90
21580;DHT22;10951;59.656;9.666;2022-12-29T14:59:37;-2.50;99.90
21580;DHT22;10951;59.656;9.666;2022-12-29T15:02:15;-2.50;99.90
21580;DHT22;10951;59.656;9.666;2022-12-29T15:04:44;-2.50;99.90
21580;DHT22;10951;59.656;9.666;2022-12-29T15:07:11;-2.50;99.90
21580;DHT22;10951;59.656;9.666;2022-12-29T15:09:43;-2.50;99.90
21580;DHT22;10951;59.656;9.666;2022-12-29T15:15:18;-2.50;99.90
21580;DHT22;10951;59.656;9.666;2022-12-29T15:17:46;-2.50;99.90
21580;DHT22;10951;59.656;9.666;2022-12-29T15:20:20;-2.50;99.90
21580;DHT22;10951;59.656;9.666;2022-12-29T15:23:09;-2.40;99.90
21580;DHT22;10951;59.656;9.666;2022-12-29T15:25:55;-2.40;99.90
21580;DHT22;10951;59.656;9.666;2022-12-29T15:28:23;-2.40;99.90
21580;DHT22;10951;59.656;9.666;2022-12-29T15:33:24;-2.50;99.90
21580;DHT22;10951;59.656;9.666;2022-12-29T15:35:54;-2.50;99.90
21580;DHT22;10951;59.656;9.666;2022-12-29T15:38:28;-2.50;99.90
21580;DHT22;10951;59.656;9.666;2022-12-29T15:41:07;-2.50;99.90
21580;DHT22;10951;59.656;9.666;2022-12-29T15:44:04;-2.40;99.90
21580;DHT22;10951;59.656;9.666;2022-12-29T15:46:34;-2.30;99.90
21580;DHT22;10951;59.656;9.666;2022-12-29T15:49:05;-2.40;99.90
21580;DHT22;10951;59.656;9.666;2022-12-29T15:51:38;-2.40;99.90
21580;DHT22;10951;59.656;9.666;2022-12-29T15:54:06;-2.40;99.90
21580;DHT22;10951;59.656;9.666;2022-12-29T15:56:40;-2.40;99.90
21580;DHT22;10951;59.656;9.666;2022-12-29T16:01:56;-2.30;99.90
21580;DHT22;10951;59.656;9.666;2022-12-29T16:04:31;-2.30;99.90
21580;DHT22;10951;59.656;9.666;2022-12-29T16:07:28;-2.30;99.90
21580;DHT22;10951;59.656;9.666;2022-12-29T16:10:05;-2.20;99.90
21580;DHT22;10951;59.656;9.666;2022-12-29T16:12:35;-2.20;99.90
21580;DHT22;10951;59.656;9.666;2022-12-29T16:15:05;-2.20;99.90
21580;DHT22;10951;59.656;9.666;2022-12-29T16:17:35;-2.20;99.90
21580;DHT22;10951;59.656;9.666;2022-12-29T16:20:21;-2.20;99.90
21580;DHT22;10951;59.656;9.666;2022-12-29T16:22:55;-2.30;99.90
21580;DHT22;10951;59.656;9.666;2022-12-29T16:25:34;-2.30;99.90
21580;DHT22;10951;59.656;9.666;2022-12-29T16:28:15;-2.30;99.90
21580;DHT22;10951;59.656;9.666;2022-12-29T16:30:44;-2.30;99.90
21580;DHT22;10951;59.656;9.666;2022-12-29T16:33:46;-2.20;99.90
21580;DHT22;10951;59.656;9.666;2022-12-29T16:36:33;-2.20;99.90
21580;DHT22;10951;59.656;9.666;2022-12-29T16:41:54;-2.20;99.90
21580;DHT22;10951;59.656;9.666;2022-12-29T16:44:29;-2.20;99.90
21580;DHT22;10951;59.656;9.666;2022-12-29T16:47:23;-2.20;99.90
21580;DHT22;10951;59.656;9.666;2022-12-29T16:49:52;-2.20;99.90
21580;DHT22;10951;59.656;9.666;2022-12-29T16:52:26;-2.20;99.90
21580;DHT22;10951;59.656;9.666;2022-12-29T16:54:58;-2.20;99.90
21580;DHT22;10951;59.656;9.666;2022-12-29T16:57:30;-2.20;99.90
21580;DHT22;10951;59.656;9.666;2022-12-29T17:00:02;-2.20;99.90
21580;DHT22;10951;59.656;9.666;2022-12-29T17:02:30;-2.10;99.90
21580;DHT22;10951;59.656;9.666;2022-12-29T17:04:59;-2.10;99.90
21580;DHT22;10951;59.656;9.666;2022-12-29T17:07:27;-2.10;99.90
21580;DHT22;10951;59.656;9.666;2022-12-29T17:09:54;-2.10;99.90
21580;DHT22;10951;59.656;9.666;2022-12-29T17:12:29;-2.10;99.90
21580;DHT22;10951;59.656;9.666;2022-12-29T17:14:58;-2.10;99.90
21580;DHT22;10951;59.656;9.666;2022-12-29T17:17:40;-2.10;99.90
21580;DHT22;10951;59.656;9.666;2022-12-29T17:20:16;-2.10;99.90
21580;DHT22;10951;59.656;9.666;2022-12-29T17:22:43;-2.20;99.90
21580;DHT22;10951;59.656;9.666;2022-12-29T17:25:13;-2.20;99.90
21580;DHT22;10951;59.656;9.666;2022-12-29T17:27:59;-2.20;99.90
21580;DHT22;10951;59.656;9.666;2022-12-29T17:30:27;-2.20;99.90
21580;DHT22;10951;59.656;9.666;2022-12-29T17:33:03;-2.20;99.90
21580;DHT22;10951;59.656;9.666;2022-12-29T17:35:31;-2.30;99.90
21580;DHT22;10951;59.656;9.666;2022-12-29T17:37:58;-2.20;99.90
21580;DHT22;10951;59.656;9.666;2022-12-29T17:40:28;-2.30;99.90
21580;DHT22;10951;59.656;9.666;2022-12-29T17:42:56;-2.30;99.90
21580;DHT22;10951;59.656;9.666;2022-12-29T17:45:28;-2.20;99.90
21580;DHT22;10951;59.656;9.666;2022-12-29T17:47:56;-2.20;99.90
21580;DHT22;10951;59.656;9.666;2022-12-29T17:50:29;-2.30;99.90
21580;DHT22;10951;59.656;9.666;2022-12-29T17:53:09;-2.40;99.90
21580;DHT22;10951;59.656;9.666;2022-12-29T17:55:37;-2.40;99.90
21580;DHT22;10951;59.656;9.666;2022-12-29T17:58:17;-2.40;99.90
21580;DHT22;10951;59.656;9.666;2022-12-29T18:00:47;-2.30;99.90
21580;DHT22;10951;59.656;9.666;2022-12-29T18:03:20;-2.40;99.90
21580;DHT22;10951;59.656;9.666;2022-12-29T18:05:48;-2.40;99.90
21580;DHT22;10951;59.656;9.666;2022-12-29T18:08:15;-2.40;99.90
21580;DHT22;10951;59.656;9.666;2022-12-29T18:10:42;-2.50;99.90
21580;DHT22;10951;59.656;9.666;2022-12-29T18:13:28;-2.60;99.90
21580;DHT22;10951;59.656;9.666;2022-12-29T18:16:12;-2.60;99.90
21580;DHT22;10951;59.656;9.666;2022-12-29T18:18:39;-2.70;99.90
21580;DHT22;10951;59.656;9.666;2022-12-29T18:21:13;-2.60;99.90
21580;DHT22;10951;59.656;9.666;2022-12-29T18:23:40;-2.70;99.90